Flight Track Log - Related Links

Times and Time Zones

All times are in EDT time to prevent confusion due to time zone crossing. See the UCA844 flight status page for this flight to view local times or setup timezone preferences in your user account.

Time Position Orientation Groundspeed Altitude Reporting Facility
EDT Latitude Longitude Course Direction KTS MPH feet Rate Location/Type
Fri 08:20:29 AM 40.6333 -74.1833 166° South 161 185 2,100  Level New York TRACON
Fri 08:21:29 AM 40.6000 -74.2167 217° Southwest 173 199 3,200 1,050 Climbing New York TRACON
Fri 08:22:29 AM 40.5500 -74.2667 217° Southwest 194 223 4,200 1,000 Climbing New York TRACON
Fri 08:23:29 AM 40.5000 -74.2500 166° South 212 244 5,200 766 Climbing New York TRACON
Fri 08:25:00 AM 40.4227 -74.2131 166° South  Level FlightAware Approximate
Fri 08:25:37 AM 40.3786 -74.1956 161° South 241 277 6,600  Level New York Center
Fri 08:26:38 AM 40.3172 -74.1600 156° South 241 277 8,000 1,230 Climbing New York Center
Fri 08:27:39 AM 40.2711 -74.1686 188° South 198 228 9,100 1,230 Climbing New York Center
Fri 08:28:40 AM 40.2247 -74.1881 198° South 167 192 10,500 966 Climbing New York Center
Fri 08:29:37 AM 40.1825 -74.2022 194° South 167 192 11,000 254 Climbing New York Center
Fri 08:30:38 AM 40.1300 -74.2186 193° South 190 219 11,000  Level New York Center
Fri 08:31:38 AM 40.0625 -74.2397 193° South 220 253 11,000  Level New York Center
Fri 08:32:39 AM 40.0017 -74.2583 193° South 225 259 11,000 550 Level New York Center
Fri 08:33:38 AM 39.9567 -74.2994 215° Southwest 219 252 12,100 1,059 Climbing New York Center
Fri 08:34:38 AM 39.9222 -74.3328 217° Southwest 186 214 13,100 884 Climbing New York Center
Fri 08:35:47 AM 39.8803 -74.3722 216° Southwest 167 192 14,000 877 Climbing Washington Center
Fri 08:36:48 AM 39.8450 -74.4025 213° Southwest 161 185 15,000 942 Climbing Washington Center
Fri 08:37:48 AM 39.8161 -74.4325 219° Southwest 147 169 15,900 763 Climbing Washington Center
Fri 08:38:46 AM 39.7917 -74.4656 226° Southwest 141 162 16,500 610 Climbing Washington Center
Fri 08:39:46 AM 39.7647 -74.4983 223° Southwest 131 151 17,100 595 Climbing Washington Center
Fri 08:40:47 AM 39.7400 -74.5364 230° Southwest 131 151 17,700 689 Climbing Washington Center
Fri 08:41:48 AM 39.7153 -74.5664 223° Southwest 131 151 18,500 645 Climbing Washington Center
Fri 08:42:48 AM 39.6886 -74.5992 223° Southwest 131 151 19,000 559 Climbing Washington Center
Fri 08:43:46 AM 39.6639 -74.6344 228° Southwest 131 151 19,600 508 Climbing Washington Center
Fri 08:44:46 AM 39.6286 -74.6619 211° Southwest 139 160 20,000 198 Climbing Washington Center
Fri 08:45:47 AM 39.5892 -74.6894 208° Southwest 149 171 20,000  Level Washington Center
Fri 08:46:45 AM 39.5458 -74.7197 208° Southwest 168 193 20,000  Level Washington Center
Fri 08:47:46 AM 39.5000 -74.7469 205° Southwest 180 207 20,000  Level Washington Center
Fri 08:48:46 AM 39.4564 -74.7772 208° Southwest 180 207 20,000  Level Washington Center
Fri 08:49:47 AM 39.4131 -74.8072 208° Southwest 180 207 20,000  Level Washington Center
Fri 08:50:48 AM 39.3672 -74.8372 207° Southwest 180 207 20,000  Level Washington Center
Fri 08:51:48 AM 39.3236 -74.8672 208° Southwest 180 207 20,000  Level Washington Center
Fri 08:52:48 AM 39.2781 -74.8972 207° Southwest 180 207 20,000  Level Washington Center
Fri 08:53:46 AM 39.2325 -74.9269 207° Southwest 180 207 20,000  Level Washington Center
Fri 08:54:46 AM 39.1889 -74.9542 206° Southwest 180 207 20,000  Level Washington Center
Fri 08:55:47 AM 39.1431 -74.9842 207° Southwest 180 207 20,000  Level Washington Center
Fri 08:56:47 AM 39.0975 -75.0139 207° Southwest 180 207 20,000  Level Washington Center
Fri 08:57:48 AM 39.0517 -75.0464 209° Southwest 180 207 20,000  Level Washington Center
Fri 08:58:46 AM 39.0058 -75.0733 205° Southwest 180 207 20,000  Level Washington Center
Fri 08:59:47 AM 38.9603 -75.1058 209° Southwest 180 207 20,000  Level Washington Center
Fri 09:00:48 AM 38.9144 -75.1353 207° Southwest 180 207 20,000  Level Washington Center
Fri 09:01:46 AM 38.8708 -75.1678 210° Southwest 180 207 20,000  Level Washington Center
Fri 09:02:46 AM 38.8272 -75.1972 208° Southwest 180 207 20,000  Level Washington Center
Fri 09:03:47 AM 38.7792 -75.2242 204° Southwest 180 207 20,000  Level Washington Center
Fri 09:04:48 AM 38.7336 -75.2589 211° Southwest 180 207 20,000  Level Washington Center
Fri 09:05:46 AM 38.6856 -75.2883 206° Southwest 180 207 20,000  Level Washington Center
Fri 09:06:47 AM 38.6397 -75.3153 205° Southwest 180 207 20,000 -149 Level Washington Center
Fri 09:07:47 AM 38.5942 -75.3472 209° Southwest 180 207 19,700 -450 Descending Washington Center
Fri 09:08:47 AM 38.5442 -75.3819 209° Southwest 185 213 19,100 -595 Descending Washington Center
Fri 09:09:48 AM 38.4900 -75.4139 205° Southwest 199 229 18,500 -605 Descending Washington Center
Fri 09:10:46 AM 38.4336 -75.4486 206° Southwest 213 245 17,900 -655 Descending Washington Center
Fri 09:11:47 AM 38.3794 -75.4858 208° Southwest 218 251 17,200 -639 Descending Washington Center
Fri 09:12:48 AM 38.3253 -75.5203 207° Southwest 218 251 16,600 -545 Descending Washington Center
Fri 09:13:48 AM 38.2711 -75.5494 203° Southwest 225 259 16,100 -555 Descending Washington Center
Fri 09:14:47 AM 38.2147 -75.5892 209° Southwest 230 265 15,500 -600 Descending Washington Center
Fri 09:15:48 AM 38.1544 -75.6233 204° Southwest 237 273 14,900 -595 Descending Washington Center
Fri 09:16:48 AM 38.0958 -75.6603 206° Southwest 237 273 14,300 -610 Descending Washington Center
Fri 09:17:46 AM 38.0417 -75.7050 213° Southwest 237 273 13,700 -610 Descending Washington Center
Fri 09:18:46 AM 37.9833 -75.7339 201° Southwest 237 273 13,100 -650 Descending Washington Center
Fri 09:19:46 AM 37.9247 -75.7761 210° Southwest 237 273 12,400 -744 Descending Washington Center
Fri 09:20:47 AM 37.8664 -75.8100 205° Southwest 237 273 11,600 -694 Descending Washington Center
Fri 09:21:47 AM 37.8017 -75.8414 201° Southwest 242 278 11,000 -743 Descending Washington Center
Fri 09:22:32 AM 37.7536 -75.8781 211° Southwest 247 284 10,300 -689 Descending Washington Center
Fri 09:22:48 AM 37.7411 -75.8833 198° South 247 284 10,300 -295 Level Washington Center
Fri 09:23:33 AM 37.6867 -75.9172 206° Southwest 245 282 10,000 -300 Descending Washington Center
Fri 09:23:48 AM 37.6825 -75.9197 205° Southwest 247 284 10,000  Level Washington Center
Fri 09:24:46 AM 37.6200 -75.9561 205° Southwest 227 261 10,000 -254 Level Washington Center
Fri 09:25:46 AM 37.5614 -75.9769 196° South 242 278 9,500 -738 Descending Washington Center
Fri 09:26:48 AM 37.4925 -75.9844 185° South 247 284 8,500 -1,008 Descending Washington Center
Fri 09:27:45 AM 37.4217 -75.9919 185° South 253 291 7,500 -1,017 Descending Washington Center
Fri 09:28:46 AM 37.3528 -76.0019 187° South 258 297 6,500 -992 Descending Washington Center
Fri 09:29:46 AM 37.2881 -76.0278 198° South 253 291 5,500 -744 Descending Washington Center
Fri 09:30:47 AM 37.2253 -76.0561 200° South 248 285 5,000 -248 Descending Washington Center
Fri 09:31:47 AM 37.1647 -76.0922 205° Southwest 248 285 5,000  Level Washington Center
Fri 09:32:02 AM 37.1417 -76.1078 208° Southwest 232 267 5,000  Level Washington Center
Fri 09:32:57 AM 37.0914 -76.1439 210° Southwest 232 267 5,000  Level Washington Center
Fri 09:33:51 AM 37.0392 -76.1747 205° Southwest 232 267 5,000  Level Washington Center
Fri 09:34:45 AM 36.9911 -76.2133 213° Southwest 234 269 5,000  Level Washington Center
Fri 09:35:47 AM 36.9386 -76.2650 218° Southwest 232 267 5,000 -375 Level Washington Center
Fri 09:36:53 AM 36.8883 -76.3164 219° Southwest 180 207 4,200 -1,100 Descending Washington Center
Fri 09:37:47 AM 36.8550 -76.2875 145° Southeast 162 186 2,800 -1,636 Descending Washington Center
Fri 09:38:54 AM 36.8572 -76.2408 87° East 114 131 900 -1,701 Descending Washington Center

Login

Don't have an account? Register now (free) for customized features, flight alerts, and more!